Time;durP1;ratioP1;P1;durP2;ratioP2;P2;SDS_P1;SDS_P2;PMS_P1;PMS_P2;Temp;Humidity;BMP_temperature;BMP_pressure;BME280_temperature;BME280_humidity;BME280_pressure;Samples;Min_cycle;Max_cycle;Signal;HPM_P1;HPM_P2
2022/06/16 00:00:40;;;;;;;0.50;0.50;;;17.70;60.70;;;18.16;44.25;95122.84;5035222;28;20215;-80
2022/06/16 00:03:09;;;;;;;0.50;0.50;;;17.70;60.70;;;18.14;44.84;95122.25;5035440;28;20195;-80
2022/06/16 00:05:40;;;;;;;0.50;0.50;;;17.70;60.90;;;18.12;44.61;95117.19;5035041;28;20266;-78
2022/06/16 00:08:10;;;;;;;0.45;0.45;;;17.60;61.10;;;18.12;44.83;95119.03;5018036;28;20231;-78
2022/06/16 00:10:38;;;;;;;0.40;0.40;;;17.70;61.20;;;18.11;44.72;95114.78;5050965;28;20219;-79
2022/06/16 00:13:05;;;;;;;0.45;0.45;;;17.60;61.10;;;18.11;44.99;95106.81;5051472;28;20635;-79
2022/06/16 00:15:32;;;;;;;0.40;0.40;;;17.60;61.30;;;18.10;44.61;95108.63;5051020;28;20589;-79
2022/06/16 00:17:59;;;;;;;0.60;0.60;;;17.60;61.30;;;18.09;44.79;95104.41;5051594;28;20217;-79
2022/06/16 00:20:27;;;;;;;0.50;0.50;;;17.60;61.60;;;18.06;45.15;95103.00;5044304;28;20246;-79
2022/06/16 00:22:54;;;;;;;0.50;0.50;;;17.60;61.60;;;18.06;45.50;95104.84;5049949;28;20294;-80
2022/06/16 00:25:22;;;;;;;0.50;0.50;;;17.50;61.50;;;18.06;45.30;95110.16;5034821;28;20219;-80
2022/06/16 00:27:49;;;;;;;0.40;0.40;;;17.60;61.60;;;18.05;45.10;95104.06;5051107;28;20215;-79
2022/06/16 00:30:16;;;;;;;0.52;0.52;;;17.50;61.50;;;18.06;45.94;95112.81;5034676;28;20219;-78
2022/06/16 00:32:43;;;;;;;0.35;0.35;;;17.50;61.50;;;18.07;45.82;95103.81;5018339;28;20214;-80
2022/06/16 00:35:12;;;;;;;0.40;0.40;;;17.50;61.50;;;18.06;45.82;95099.53;5051474;28;20344;-80
2022/06/16 00:37:40;;;;;;;0.40;0.40;;;17.60;61.70;;;18.04;46.05;95099.78;5050951;28;20195;-78
2022/06/16 00:40:10;;;;;;;0.40;0.40;;;17.50;61.50;;;18.02;45.81;95095.75;5048322;28;20231;-79
2022/06/16 00:42:37;;;;;;;0.43;0.43;;;17.50;61.50;;;17.98;46.08;95091.94;5054888;28;20301;-78
2022/06/16 00:45:56;;;;;;;0.50;0.50;;;17.50;62.40;;;17.97;45.81;95098.28;5054538;28;20264;-79
2022/06/16 00:48:41;;;;;;;0.50;0.50;;;17.50;62.10;;;17.93;46.28;95092.59;5071379;28;20222;-78
2022/06/16 00:51:20;;;;;;;0.50;0.50;;;17.50;62.40;;;17.90;45.98;95085.13;5054593;28;20210;-79
2022/06/16 00:53:48;;;;;;;0.50;0.50;;;17.50;62.50;;;17.89;46.04;95091.47;5071255;28;20213;-79
2022/06/16 00:56:18;;;;;;;0.57;0.57;;;17.40;61.70;;;17.89;46.16;95086.16;5071070;28;20214;-79
2022/06/16 00:58:52;;;;;;;0.70;0.70;;;17.40;61.90;;;17.85;46.16;95096.44;5066043;28;20229;-79
2022/06/16 01:01:21;;;;;;;0.50;0.50;;;17.30;61.90;;;17.83;45.65;95087.09;5050925;28;20246;-79
2022/06/16 01:06:37;;;;;;;0.50;0.50;;;17.30;62.10;;;17.75;45.86;95080.31;5056689;28;20195;-80
2022/06/16 01:09:12;;;;;;;0.40;0.40;;;17.30;62.00;;;17.70;46.12;95085.47;5034868;28;20225;-80
2022/06/16 01:15:37;;;;;;;0.50;0.50;;;17.20;62.20;;;17.53;46.70;95088.84;5038336;28;20235;-79
2022/06/16 01:18:08;;;;;;;0.50;0.50;;;17.10;62.60;;;17.47;46.89;95086.28;5049272;28;20210;-78
2022/06/16 01:21:05;;;;;;;0.60;0.60;;;17.10;62.10;;;17.41;46.91;95080.88;5052335;28;20687;-79
2022/06/16 01:24:22;;;;;;;0.50;0.50;;;17.00;63.30;;;17.34;47.08;95077.53;5069829;28;20463;-79
2022/06/16 01:27:20;;;;;;;0.50;0.50;;;17.00;63.10;;;17.33;46.95;95075.13;5070923;28;20664;-79
2022/06/16 01:30:08;;;;;;;0.60;0.60;;;16.90;62.70;;;17.27;46.77;95069.72;5066341;28;20235;-79
2022/06/16 01:32:50;;;;;;;0.50;0.50;;;16.90;62.90;;;17.25;46.45;95077.06;5037431;28;20545;-78
2022/06/16 01:35:35;;;;;;;0.50;0.50;;;16.80;63.00;;;17.25;47.22;95076.28;5071367;28;20223;-79
2022/06/16 01:38:53;;;;;;;0.50;0.50;;;16.80;63.20;;;17.18;47.05;95070.28;5055107;28;20214;-79
2022/06/16 01:41:54;;;;;;;0.50;0.50;;;16.80;63.50;;;17.12;46.87;95079.94;5062152;28;20215;-79
2022/06/16 01:44:44;;;;;;;0.45;0.45;;;16.70;63.40;;;17.08;47.32;95079.59;5071241;28;20275;-79
2022/06/16 01:47:17;;;;;;;0.40;0.40;;;16.70;63.60;;;17.07;47.28;95077.97;5057748;28;20575;-79
2022/06/16 01:49:53;;;;;;;0.60;0.60;;;16.60;63.10;;;17.06;47.63;95075.56;5041458;28;20238;-78
2022/06/16 01:52:54;;;;;;;0.50;0.50;;;16.70;63.50;;;17.06;47.63;95070.25;5052680;28;20205;-79
2022/06/16 01:55:30;;;;;;;0.50;0.50;;;16.60;64.10;;;17.04;47.74;95080.28;5000201;28;20270;-79
2022/06/16 01:58:28;;;;;;;0.50;0.50;;;16.70;63.90;;;17.01;47.90;95080.75;4983958;28;20203;-79
2022/06/16 02:01:00;;;;;;;0.50;0.50;;;16.60;63.40;;;16.99;48.07;95074.84;5008540;28;20292;-79
2022/06/16 02:03:40;;;;;;;0.50;0.50;;;16.50;64.80;;;16.96;48.12;95071.63;5052850;28;20225;-79
2022/06/16 02:06:24;;;;;;;0.50;0.50;;;16.60;64.40;;;16.94;48.17;95071.06;5018321;28;20594;-79
2022/06/16 02:08:59;;;;;;;0.50;0.50;;;16.50;63.60;;;16.94;48.13;95064.94;5036061;28;20337;-79
2022/06/16 02:11:32;;;;;;;0.50;0.50;;;16.60;64.20;;;16.93;48.91;95063.31;5019361;28;20207;-80
2022/06/16 02:14:17;;;;;;;0.50;0.50;;;16.50;64.10;;;16.88;48.82;95056.03;5036155;28;20657;-79
2022/06/16 02:16:47;;;;;;;0.50;0.50;;;16.60;64.90;;;16.86;48.63;95062.59;5048608;28;20215;-78
2022/06/16 02:19:19;;;;;;;0.50;0.50;;;16.50;64.10;;;16.85;48.66;95053.84;5019054;28;20323;-79
2022/06/16 02:21:50;;;;;;;0.50;0.50;;;16.50;64.40;;;16.86;49.09;95062.59;5036077;28;20207;-79
2022/06/16 02:24:21;;;;;;;0.50;0.50;;;16.40;64.00;;;16.85;48.48;95060.97;5018875;28;20219;-79
2022/06/16 02:26:50;;;;;;;0.47;0.47;;;16.40;64.20;;;16.83;48.89;95061.19;5057088;28;20207;-79
2022/06/16 02:29:34;;;;;;;0.50;0.50;;;16.40;64.20;;;16.79;49.22;95052.09;5056616;28;20329;-79
2022/06/16 02:32:33;;;;;;;0.50;0.50;;;16.40;64.80;;;16.76;48.92;95056.00;5073589;28;20186;-79
2022/06/16 02:35:50;;;;;;;0.50;0.50;;;16.30;65.30;;;16.73;49.25;95053.00;5045768;28;20238;-79
2022/06/16 02:39:10;;;;;;;0.50;0.50;;;16.40;65.10;;;16.68;48.86;95055.53;5036863;28;20195;-79
2022/06/16 02:42:08;;;;;;;0.50;0.50;;;16.30;64.70;;;16.65;48.60;95060.25;5070035;28;20692;-79
2022/06/16 02:45:07;;;;;;;0.50;0.50;;;16.30;64.60;;;16.62;48.89;95051.94;5068801;28;20221;-79
2022/06/16 02:48:14;;;;;;;0.70;0.70;;;16.20;64.70;;;16.59;49.03;95052.41;5067773;28;20614;-79
2022/06/16 02:51:05;;;;;;;0.55;0.55;;;16.20;65.20;;;16.57;49.14;95051.81;5069452;28;20207;-79
2022/06/16 02:56:57;;;;;;;0.50;0.50;;;16.20;65.60;;;16.49;49.13;95052.94;5052690;28;20237;-79
2022/06/16 02:59:29;;;;;;;0.60;0.60;;;16.10;65.20;;;16.51;49.44;95055.38;5037313;28;20309;-79
2022/06/16 03:02:04;;;;;;;0.57;0.57;;;16.10;65.20;;;16.51;49.71;95055.38;5047424;28;20198;-79
2022/06/16 03:04:41;;;;;;;0.50;0.50;;;16.10;65.90;;;16.49;49.62;95048.44;5054977;28;20229;-79
2022/06/16 03:07:14;;;;;;;0.50;0.50;;;16.20;66.10;;;16.52;49.90;95055.13;5072297;28;20645;-79
2022/06/16 03:09:42;;;;;;;0.60;0.60;;;16.10;66.90;;;16.45;49.89;95044.66;5055318;28;20632;-79
2022/06/16 03:12:12;;;;;;;0.60;0.60;;;16.00;65.30;;;16.52;49.87;95056.97;5054721;28;20200;-79
2022/06/16 03:14:43;;;;;;;0.60;0.60;;;16.00;65.60;;;16.51;49.97;95050.06;5049627;28;20310;-80
2022/06/16 03:17:12;;;;;;;0.52;0.52;;;16.00;66.70;;;16.55;50.33;95051.22;5052888;28;20267;-79
2022/06/16 03:19:40;;;;;;;0.60;0.60;;;16.10;66.00;;;16.56;49.94;95050.19;5053152;28;20690;-79
2022/06/16 03:22:07;;;;;;;0.50;0.50;;;16.10;65.80;;;16.59;50.08;95049.75;5072364;28;20206;-79
2022/06/16 03:24:35;;;;;;;0.70;0.70;;;16.10;65.90;;;16.59;50.40;95044.47;5038880;28;20222;-79
2022/06/16 03:27:05;;;;;;;0.60;0.60;;;16.10;66.00;;;16.61;50.35;95051.16;5055907;28;20202;-80
2022/06/16 03:29:38;;;;;;;0.50;0.50;;;16.10;66.00;;;16.62;50.33;95047.47;5070881;28;20233;-79
2022/06/16 03:32:09;;;;;;;0.50;0.50;;;16.10;65.90;;;16.64;50.42;95047.22;5048128;28;20229;-79
2022/06/16 03:34:37;;;;;;;0.43;0.43;;;16.20;66.10;;;16.64;50.53;95049.88;5055529;28;20264;-78
2022/06/16 03:37:05;;;;;;;0.40;0.40;;;16.20;66.00;;;16.65;50.57;95047.00;5052903;28;20198;-79
2022/06/16 03:39:41;;;;;;;0.60;0.60;;;16.20;66.10;;;16.65;50.65;95044.34;5070382;28;20305;-79
2022/06/16 03:42:09;;;;;;;0.50;0.50;;;16.20;66.20;;;16.71;50.84;95050.59;5054433;28;20195;-79
2022/06/16 03:44:36;;;;;;;0.68;0.68;;;16.30;66.30;;;16.72;50.98;95043.44;5063663;28;20306;-79
2022/06/16 03:47:05;;;;;;;0.50;0.50;;;16.30;66.30;;;16.74;51.06;95052.78;5050176;28;20199;-79
2022/06/16 03:49:40;;;;;;;0.40;0.40;;;16.30;66.40;;;16.77;50.85;95054.97;5051617;28;20720;-79
2022/06/16 03:52:08;;;;;;;0.50;0.50;;;16.30;66.40;;;16.79;50.92;95052.88;5035300;28;20282;-79
2022/06/16 03:54:38;;;;;;;0.70;0.70;;;16.40;66.50;;;16.85;51.02;95063.63;5050626;28;20630;-80
2022/06/16 03:57:08;;;;;;;0.50;0.50;;;16.40;66.40;;;16.90;50.88;95061.09;5019896;28;20207;-80
2022/06/16 03:59:35;;;;;;;0.70;0.70;;;16.50;66.50;;;16.92;50.86;95059.88;5035106;28;20219;-79
2022/06/16 04:02:22;;;;;;;0.60;0.60;;;16.50;66.50;;;16.96;51.15;95055.72;5044199;28;20217;-79
2022/06/16 04:04:49;;;;;;;0.50;0.50;;;16.50;66.40;;;17.03;50.94;95062.75;5053531;28;20232;-80
2022/06/16 04:07:18;;;;;;;0.50;0.50;;;16.60;66.60;;;17.09;51.04;95059.22;5021334;28;20199;-79
2022/06/16 04:09:59;;;;;;;0.50;0.50;;;16.70;66.80;;;17.13;50.90;95052.41;5059776;28;20258;-79
2022/06/16 04:12:27;;;;;;;0.50;0.50;;;16.80;66.70;;;17.19;51.33;95048.84;5063301;28;20195;-79
2022/06/16 04:14:54;;;;;;;0.50;0.50;;;16.80;66.90;;;17.22;51.33;95048.38;5051410;28;20199;-78
2022/06/16 04:17:22;;;;;;;0.60;0.60;;;16.80;66.90;;;17.29;51.46;95041.09;5050882;28;20256;-80
2022/06/16 04:22:53;;;;;;;0.50;0.50;;;16.90;67.00;;;17.40;51.63;95047.44;5049543;28;20206;-79
2022/06/16 04:25:32;;;;;;;0.50;0.50;;;17.10;67.10;;;17.49;51.59;95042.63;5022810;28;20254;-80
2022/06/16 04:28:13;;;;;;;0.40;0.40;;;17.10;67.80;;;17.56;51.28;95051.22;5056760;28;20206;-80
2022/06/16 04:30:48;;;;;;;0.50;0.50;;;17.10;66.90;;;17.62;51.44;95048.72;5055981;28;20303;-80
2022/06/16 04:33:19;;;;;;;0.52;0.52;;;17.30;67.10;;;17.69;51.56;95044.09;5052224;28;20217;-80
2022/06/16 04:35:48;;;;;;;0.50;0.50;;;17.30;67.20;;;17.78;51.39;95042.69;5073045;28;20711;-79
2022/06/16 04:38:21;;;;;;;0.47;0.47;;;17.40;67.30;;;17.85;51.89;95038.06;5035913;28;20206;-80
2022/06/16 04:40:49;;;;;;;0.47;0.47;;;17.50;67.50;;;17.93;51.93;95045.66;5040887;28;20222;-82
2022/06/16 04:43:17;;;;;;;0.40;0.40;;;17.50;67.30;;;18.02;52.00;95043.47;5071400;28;20198;-80
2022/06/16 04:45:52;;;;;;;0.40;0.40;;;17.60;67.40;;;18.08;51.72;95047.81;5071267;28;20226;-80
2022/06/16 04:48:23;;;;;;;0.40;0.40;;;17.70;67.50;;;18.16;51.84;95044.00;5071534;28;20219;-80
2022/06/16 04:50:51;;;;;;;0.47;0.47;;;17.70;67.40;;;18.26;51.73;95046.06;5049195;28;20579;-79
2022/06/16 04:53:23;;;;;;;0.43;0.43;;;17.80;67.20;;;18.31;51.59;95045.31;5062955;28;20208;-80
2022/06/16 04:56:04;;;;;;;0.45;0.45;;;17.90;67.20;;;18.42;51.59;95048.97;5050947;28;20255;-80
2022/06/16 04:58:50;;;;;;;0.40;0.40;;;18.10;67.50;;;18.50;51.57;95044.09;5051746;28;20209;-79
2022/06/16 05:01:54;;;;;;;0.50;0.50;;;18.10;67.30;;;18.59;51.64;95046.34;5049189;28;20229;-79
2022/06/16 05:04:35;;;;;;;0.40;0.40;;;18.20;67.50;;;18.68;52.04;95043.06;5067193;28;20230;-79
2022/06/16 05:07:07;;;;;;;0.50;0.50;;;18.30;67.50;;;18.78;51.89;95037.13;5058658;28;20674;-79
2022/06/16 05:09:55;;;;;;;0.40;0.40;;;18.40;67.60;;;18.88;52.22;95037.31;5069932;28;20237;-80
2022/06/16 05:12:41;;;;;;;0.50;0.50;;;18.50;67.60;;;18.98;52.02;95038.53;5073342;28;20201;-80
2022/06/16 05:15:25;;;;;;;0.50;0.50;;;18.60;67.50;;;19.08;52.15;95037.88;5056856;28;20234;-80
2022/06/16 05:18:12;;;;;;;0.55;0.55;;;18.70;67.50;;;19.18;51.44;95038.06;5041460;28;20321;-79
2022/06/16 05:21:14;;;;;;;0.47;0.47;;;18.80;67.50;;;19.28;52.13;95040.88;5059134;28;20258;-80
2022/06/16 05:24:01;;;;;;;0.43;0.43;;;18.90;67.90;;;19.38;51.48;95042.06;5061199;28;20202;-80
2022/06/16 05:26:48;;;;;;;0.40;0.40;;;19.10;67.50;;;19.46;51.91;95044.31;5060836;28;20228;-80
2022/06/16 05:29:39;;;;;;;0.50;0.50;;;19.10;67.40;;;19.58;51.61;95039.69;5070348;28;20237;-79
2022/06/16 05:32:19;;;;;;;0.40;0.40;;;19.30;67.60;;;19.69;51.77;95043.31;5054289;28;20211;-81
2022/06/16 05:35:05;;;;;;;0.50;0.50;;;19.40;67.60;;;19.80;51.76;95037.06;5040719;28;20222;-80
2022/06/16 05:37:42;;;;;;;0.40;0.40;;;19.50;67.60;;;19.88;52.28;95032.38;5039716;28;20203;-81
2022/06/16 05:40:25;;;;;;;0.40;0.40;;;19.60;68.50;;;20.00;51.81;95027.75;5040561;28;20269;-79
2022/06/16 05:43:10;;;;;;;0.40;0.40;;;19.70;67.50;;;20.13;52.15;95030.03;5060647;28;20329;-79
2022/06/16 05:46:07;;;;;;;0.40;0.40;;;19.80;67.60;;;20.25;51.95;95034.41;5048997;28;20246;-79
2022/06/16 05:48:52;;;;;;;0.40;0.40;;;19.90;67.60;;;20.37;51.79;95035.06;5055407;28;20213;-80
2022/06/16 05:51:19;;;;;;;0.40;0.40;;;20.10;67.90;;;20.51;51.94;95032.81;5068549;28;20223;-80
2022/06/16 05:54:07;;;;;;;0.40;0.40;;;20.20;67.70;;;20.65;51.65;95043.88;5054398;28;20210;-80
2022/06/16 05:56:37;;;;;;;0.50;0.50;;;20.30;67.70;;;20.77;52.08;95039.22;5054527;28;20714;-80
2022/06/16 05:59:05;;;;;;;0.47;0.47;;;20.50;67.90;;;20.92;51.72;95033.22;5050129;28;20230;-79
2022/06/16 06:01:41;;;;;;;0.40;0.40;;;20.70;68.00;;;21.08;52.26;95047.47;5055132;28;20195;-80
2022/06/16 06:04:10;;;;;;;0.47;0.47;;;20.70;67.90;;;21.21;52.26;95038.22;5053403;28;20250;-80
2022/06/16 06:06:38;;;;;;;0.40;0.40;;;20.90;67.90;;;21.38;52.31;95038.09;5021062;28;20607;-80
2022/06/16 06:17:32;;;;;;;0.45;0.45;;;21.50;67.90;;;21.99;52.25;95026.16;5023175;28;20276;-79
2022/06/16 06:20:03;;;;;;;0.30;0.30;;;21.70;67.90;;;22.15;52.13;95029.69;5004850;28;20267;-79
2022/06/16 06:22:30;;;;;;;0.47;0.47;;;21.80;67.80;;;22.28;51.47;95035.63;5037060;28;20222;-80
2022/06/16 06:25:10;;;;;;;0.40;0.40;;;22.00;67.70;;;22.43;51.89;95038.34;5022646;28;20273;-80
2022/06/16 06:27:45;;;;;;;0.50;0.50;;;22.10;67.50;;;22.52;51.58;95028.75;5019677;28;20704;-80
2022/06/16 06:30:22;;;;;;;0.43;0.43;;;22.20;67.90;;;22.63;51.39;95034.09;5036931;28;20591;-80
2022/06/16 06:32:52;;;;;;;0.40;0.40;;;22.30;67.60;;;22.68;51.44;95034.91;5020741;28;20561;-81
2022/06/16 06:35:19;;;;;;;0.30;0.30;;;22.40;67.40;;;22.75;51.53;95028.50;5020753;28;20219;-80
2022/06/16 06:37:47;;;;;;;0.30;0.30;;;22.50;67.50;;;22.86;52.09;95035.47;5037134;28;20211;-80
2022/06/16 06:40:31;;;;;;;0.40;0.40;;;22.60;67.50;;;22.93;51.86;95038.69;5036398;28;20249;-80
2022/06/16 06:42:58;;;;;;;0.40;0.40;;;22.70;67.60;;;23.00;51.71;95044.56;5020416;28;20300;-80
2022/06/16 06:45:27;;;;;;;0.30;0.30;;;22.70;67.30;;;23.07;51.51;95044.31;5036851;28;20219;-81
2022/06/16 06:47:54;;;;;;;0.30;0.30;;;22.80;67.30;;;23.15;51.42;95045.66;5020489;28;20664;-81
2022/06/16 06:50:27;;;;;;;0.30;0.30;;;22.90;66.90;;;23.24;50.89;95048.59;5061725;28;20229;-81
2022/06/16 06:52:54;;;;;;;0.30;0.30;;;22.90;67.10;;;23.27;51.48;95043.53;5034467;28;20287;-80
2022/06/16 06:55:22;;;;;;;0.40;0.40;;;23.00;66.90;;;23.38;50.47;95054.25;5019408;28;20747;-80
2022/06/16 06:57:52;;;;;;;0.25;0.25;;;23.10;66.40;;;23.44;50.28;95059.31;5020341;28;20536;-80
2022/06/16 07:00:23;;;;;;;0.32;0.32;;;23.10;66.00;;;23.51;50.51;95059.03;5005531;28;20234;-80
2022/06/16 07:02:51;;;;;;;0.40;0.40;;;23.20;66.00;;;23.57;49.95;95060.63;5036744;28;20202;-80
2022/06/16 07:05:18;;;;;;;0.30;0.30;;;23.30;66.10;;;23.66;50.41;95052.84;5036487;28;20685;-79
2022/06/16 07:07:47;;;;;;;0.40;0.40;;;23.40;66.20;;;23.74;50.09;95054.97;5036142;28;20215;-81
2022/06/16 07:10:17;;;;;;;0.30;0.30;;;23.40;66.20;;;23.83;49.89;95053.31;5056083;28;20268;-81
2022/06/16 07:12:44;;;;;;;0.30;0.30;;;23.60;66.30;;;23.93;50.35;95044.47;5036907;28;20210;-81
2022/06/16 07:15:12;;;;;;;0.60;0.60;;;23.70;66.40;;;24.05;49.80;95035.34;5051819;28;20215;-80
2022/06/16 07:17:39;;;;;;;0.30;0.30;;;23.70;66.40;;;24.16;50.00;95039.59;5052804;28;20687;-81
2022/06/16 07:20:08;;;;;;;0.40;0.40;;;23.80;66.40;;;24.26;49.48;95028.00;5035955;28;20594;-80
2022/06/16 07:22:35;;;;;;;0.32;0.32;;;23.90;66.10;;;24.37;49.62;95018.84;5052606;28;20203;-79
2022/06/16 07:25:02;;;;;;;0.22;0.22;;;24.10;66.60;;;24.51;49.38;95020.91;5036001;28;20225;-80
2022/06/16 07:27:30;;;;;;;0.30;0.30;;;24.10;66.00;;;24.60;49.63;95025.41;5035744;28;20272;-81
2022/06/16 07:29:57;;;;;;;0.30;0.30;;;24.30;66.40;;;24.70;49.34;95027.25;5035378;28;20224;-80
2022/06/16 07:32:26;;;;;;;0.30;0.30;;;24.40;65.90;;;24.82;49.35;95032.25;5039354;28;20300;-80
2022/06/16 07:34:53;;;;;;;0.40;0.40;;;24.50;65.70;;;24.93;49.00;95038.38;5051764;28;20709;-81
2022/06/16 07:37:20;;;;;;;0.30;0.30;;;24.60;65.40;;;25.05;49.08;95036.13;5052368;28;20208;-81
2022/06/16 07:39:49;;;;;;;0.30;0.30;;;24.70;66.20;;;25.21;48.70;95039.47;5035952;28;20239;-81
2022/06/16 07:42:16;;;;;;;0.40;0.40;;;24.90;65.30;;;25.40;48.49;95042.28;5034542;28;20235;-80
2022/06/16 07:44:44;;;;;;;0.30;0.30;;;25.00;65.20;;;25.61;48.21;95044.78;5047876;28;20311;-81
2022/06/16 07:47:11;;;;;;;0.25;0.25;;;25.20;64.80;;;25.80;47.40;95046.75;5034947;28;20540;-80
2022/06/16 07:49:38;;;;;;;0.30;0.30;;;25.40;64.20;;;25.95;47.55;95046.56;5052305;28;20216;-81
2022/06/16 07:52:06;;;;;;;0.30;0.30;;;25.50;64.20;;;26.08;46.08;95042.41;5060208;28;20243;-80
2022/06/16 07:54:33;;;;;;;0.70;0.70;;;25.70;63.30;;;26.17;46.37;95037.19;5035284;28;20694;-81
2022/06/16 07:57:21;;;;;;;0.20;0.20;;;25.80;62.90;;;26.32;46.25;95030.84;5037843;28;20203;-80
2022/06/16 07:59:57;;;;;;;0.30;0.30;;;25.90;62.90;;;26.42;45.71;95029.91;5052175;28;20240;-80
2022/06/16 08:02:26;;;;;;;0.30;0.30;;;26.00;62.30;;;26.46;45.10;95017.47;5060174;28;20213;-81
2022/06/16 08:04:54;;;;;;;0.30;0.30;;;26.10;62.20;;;26.51;45.06;95026.28;5051285;28;20721;-80
2022/06/16 08:07:22;;;;;;;0.25;0.25;;;26.20;61.90;;;26.56;45.03;95028.06;5035301;28;20549;-80
2022/06/16 08:09:49;;;;;;;0.40;0.40;;;26.30;61.90;;;26.60;44.98;95028.28;5051751;28;20224;-79
2022/06/16 08:12:19;;;;;;;0.20;0.20;;;26.30;61.80;;;26.65;44.88;95012.09;5034462;28;20226;-79
2022/06/16 08:14:48;;;;;;;0.30;0.30;;;26.40;61.80;;;26.68;43.86;95012.31;5019128;28;20221;-81
2022/06/16 08:17:26;;;;;;;0.20;0.20;;;26.40;61.00;;;26.74;44.17;95012.22;5051720;28;20725;-79
2022/06/16 08:19:54;;;;;;;0.30;0.30;;;26.40;61.10;;;26.80;44.36;95017.25;5051932;28;20790;-80
2022/06/16 08:22:23;;;;;;;0.30;0.30;;;26.50;61.20;;;26.88;44.16;95012.31;5060015;28;20208;-79
2022/06/16 08:24:50;;;;;;;0.30;0.30;;;26.60;60.90;;;26.93;43.82;95009.56;5018579;28;20284;-80
2022/06/16 08:27:22;;;;;;;0.30;0.30;;;26.60;60.70;;;27.00;42.74;95007.25;5035188;28;20237;-79
2022/06/16 08:29:50;;;;;;;0.30;0.30;;;26.70;60.30;;;27.08;42.94;95008.50;5051736;28;20260;-80
2022/06/16 08:32:20;;;;;;;0.25;0.25;;;26.70;59.90;;;27.14;42.72;94999.25;5051499;28;20204;-79
2022/06/16 08:34:49;;;;;;;0.30;0.30;;;26.80;60.20;;;27.24;43.28;94990.19;5052791;28;20230;-80
2022/06/16 08:37:17;;;;;;;0.30;0.30;;;26.80;60.10;;;27.31;42.42;94994.09;5037587;28;20653;-80
2022/06/16 08:39:45;;;;;;;0.30;0.30;;;26.90;60.10;;;27.37;42.12;94983.22;5054589;28;20245;-80
2022/06/16 08:42:54;;;;;;;0.30;0.30;;;27.00;59.60;;;27.46;41.60;94982.25;5050290;28;20657;-79
2022/06/16 08:45:32;;;;;;;0.30;0.30;;;27.10;59.20;;;27.55;42.04;94974.31;5025324;28;20219;-80
2022/06/16 08:48:36;;;;;;;0.28;0.28;;;27.20;59.10;;;27.62;41.79;94974.72;5034828;28;20203;-81
2022/06/16 08:51:33;;;;;;;0.30;0.30;;;27.30;59.20;;;27.69;40.57;94977.00;5034445;28;20670;-80
2022/06/16 08:54:28;;;;;;;0.20;0.20;;;27.30;57.20;;;27.79;39.92;94970.59;5034019;28;20226;-80
2022/06/16 08:57:35;;;;;;;0.30;0.30;;;27.40;56.80;;;27.87;39.42;94969.09;5034622;28;20283;-80
2022/06/16 09:00:13;;;;;;;0.30;0.30;;;27.50;57.20;;;27.96;38.60;94967.28;5041127;28;20259;-80
2022/06/16 09:02:59;;;;;;;0.20;0.20;;;27.60;55.10;;;28.02;38.16;94965.31;5067655;28;20222;-80
2022/06/16 09:06:00;;;;;;;0.30;0.30;;;27.60;54.50;;;28.09;37.37;94973.81;5034620;28;20570;-80
2022/06/16 09:08:39;;;;;;;0.20;0.20;;;27.80;53.60;;;28.19;37.80;94978.19;5047996;28;20534;-81
2022/06/16 09:11:32;;;;;;;0.30;0.30;;;27.80;54.40;;;28.25;37.71;94968.88;5050636;28;20302;-80
2022/06/16 09:15:10;;;;;;;0.40;0.40;;;27.90;54.40;;;28.37;37.20;94989.91;5054147;28;20204;-81
2022/06/16 09:18:07;;;;;;;0.28;0.28;;;27.90;53.60;;;28.48;37.80;94988.59;5072357;28;20227;-79
2022/06/16 09:20:56;;;;;;;0.30;0.30;;;28.10;54.80;;;28.59;37.81;94987.28;5029504;28;20228;-80
2022/06/16 09:23:42;;;;;;;0.20;0.20;;;28.20;55.10;;;28.73;38.07;94984.56;5024976;28;20339;-80
2022/06/16 09:26:23;;;;;;;0.22;0.22;;;28.30;54.60;;;28.85;37.89;94986.69;5068815;28;20235;-78
2022/06/16 09:29:00;;;;;;;0.20;0.20;;;28.40;54.20;;;29.03;37.87;94979.50;5035994;28;20296;-81
2022/06/16 09:31:40;;;;;;;0.20;0.20;;;28.60;54.30;;;29.23;37.01;94980.91;5051761;28;20211;-80
2022/06/16 09:34:23;;;;;;;0.28;0.28;;;28.70;55.20;;;29.41;37.03;94974.81;5034433;28;20193;-79
2022/06/16 09:36:59;;;;;;;0.40;0.40;;;28.90;53.10;;;29.53;36.90;94975.84;5064402;28;20212;-80
2022/06/16 09:39:34;;;;;;;0.28;0.28;;;29.10;52.70;;;29.67;36.64;94970.31;5050835;28;20302;-81
2022/06/16 09:42:40;;;;;;;0.20;0.20;;;29.20;52.70;;;29.77;36.43;94969.25;5042911;28;20209;-80
2022/06/16 09:45:27;;;;;;;0.40;0.40;;;29.40;53.70;;;29.85;36.04;94965.75;5052827;28;20252;-80
2022/06/16 09:48:08;;;;;;;0.30;0.30;;;29.50;52.10;;;29.95;36.33;94970.13;5053975;28;20198;-80
2022/06/16 09:50:56;;;;;;;0.30;0.30;;;29.60;52.80;;;29.99;36.24;94965.69;5047668;28;20290;-80
2022/06/16 09:53:43;;;;;;;0.30;0.30;;;29.70;52.00;;;30.10;36.42;94960.78;5073790;28;20206;-80
2022/06/16 09:56:20;;;;;;;0.28;0.28;;;29.80;52.80;;;30.21;34.81;94960.47;5074270;28;20692;-79
2022/06/16 09:59:13;;;;;;;0.32;0.32;;;29.90;50.30;;;30.33;36.09;94971.47;5073975;28;20556;-80
2022/06/16 10:01:53;;;;;;;0.28;0.28;;;30.00;52.00;;;30.44;35.99;94961.13;5048577;28;20211;-80
2022/06/16 10:04:20;;;;;;;0.40;0.40;;;30.10;51.80;;;30.59;35.42;94960.69;5074113;28;20208;-80
2022/06/16 10:07:17;;;;;;;0.30;0.30;;;30.20;51.40;;;30.78;35.36;94962.25;5057485;28;20562;-80
2022/06/16 10:10:09;;;;;;;0.20;0.20;;;30.50;51.90;;;31.00;34.76;94965.91;5054921;28;20258;-80
2022/06/16 10:13:02;;;;;;;0.30;0.30;;;30.60;50.60;;;31.18;34.03;94961.28;5039013;28;20204;-79
2022/06/16 10:15:49;;;;;;;0.20;0.20;;;30.80;50.10;;;31.37;34.16;94961.69;5067768;28;20807;-78
2022/06/16 10:18:17;;;;;;;0.40;0.40;;;31.00;49.60;;;31.48;33.68;94955.91;5072204;28;20229;-79
2022/06/16 10:20:45;;;;;;;0.50;0.50;;;31.20;48.60;;;31.67;32.65;94958.28;5055189;28;20221;-80
2022/06/16 10:23:28;;;;;;;0.30;0.30;;;31.30;48.00;;;31.73;32.40;94955.03;5053597;28;20194;-79
2022/06/16 10:26:04;;;;;;;0.30;0.30;;;31.40;48.10;;;31.80;32.54;94949.13;5037385;28;20246;-79
2022/06/16 10:28:38;;;;;;;0.28;0.28;;;31.50;48.20;;;31.78;31.51;94957.56;5040294;28;20203;-79
2022/06/16 10:31:08;;;;;;;0.30;0.30;;;31.50;47.10;;;31.72;31.81;94955.38;5036228;28;20254;-79
2022/06/16 10:33:53;;;;;;;0.20;0.20;;;31.50;46.60;;;31.61;32.01;94966.53;5050589;28;20255;-81
2022/06/16 10:36:24;;;;;;;0.30;0.30;;;31.50;47.40;;;31.55;32.24;94962.41;5053706;28;20213;-80
2022/06/16 10:49:40;;;;;;;0.30;0.30;;;31.40;48.10;;;31.68;32.30;94957.16;5055415;28;20239;-79
2022/06/16 10:52:14;;;;;;;0.32;0.32;;;31.50;47.40;;;31.84;31.78;94960.88;5057949;28;20207;-77
2022/06/16 10:55:23;;;;;;;0.30;0.30;;;31.50;46.50;;;31.97;31.56;94955.53;5051135;28;20215;-79
2022/06/16 10:58:06;;;;;;;0.20;0.20;;;31.70;47.10;;;32.09;31.22;94955.63;5031907;28;20315;-78
2022/06/16 11:00:36;;;;;;;0.40;0.40;;;31.80;46.10;;;32.23;30.96;94950.00;5046100;28;20220;-78
2022/06/16 11:03:04;;;;;;;0.40;0.40;;;32.00;45.80;;;32.35;29.98;94950.06;5019053;28;20213;-80
2022/06/16 11:05:53;;;;;;;0.30;0.30;;;32.00;45.00;;;32.53;30.35;94952.63;5058491;28;20228;-79
2022/06/16 11:08:23;;;;;;;0.30;0.30;;;32.20;45.80;;;32.69;29.43;94950.09;5041679;28;20589;-78
2022/06/16 11:11:11;;;;;;;0.20;0.20;;;32.30;43.90;;;32.78;28.80;94950.88;5031496;28;20237;-79
2022/06/16 11:13:52;;;;;;;0.20;0.20;;;32.50;43.60;;;32.86;28.98;94949.19;5036048;28;20213;-79
2022/06/16 11:16:37;;;;;;;0.20;0.20;;;32.60;43.20;;;32.97;29.50;94952.28;5033702;28;20234;-80
2022/06/16 11:19:11;;;;;;;0.20;0.20;;;32.70;43.90;;;33.05;29.18;94948.69;5040651;28;20210;-79
2022/06/16 11:21:45;;;;;;;0.30;0.30;;;32.70;43.60;;;33.17;29.13;94950.66;5049285;28;20237;-80
2022/06/16 11:24:31;;;;;;;0.20;0.20;;;32.80;43.60;;;33.34;29.65;94946.97;5025114;28;20201;-80
2022/06/16 11:27:16;;;;;;;0.30;0.30;;;33.00;44.00;;;33.47;28.88;94932.28;5020855;28;20332;-79
2022/06/16 11:29:43;;;;;;;0.20;0.20;;;33.10;43.90;;;33.67;28.79;94946.88;5028895;28;20743;-79
2022/06/16 11:32:28;;;;;;;0.20;0.20;;;33.30;42.70;;;33.87;28.54;94943.63;5081696;28;20220;-79
2022/06/16 11:34:56;;;;;;;0.20;0.20;;;33.50;42.40;;;34.05;28.15;94938.75;5057521;28;20227;-78